sensor_id;sensor_type;location;lat;lon;timestamp;pressure;altitude;pressure_sealevel;temperature;humidity
75231;BME280;63814;50.118;8.714;2022-12-01T00:02:20;101025.44;;;5.46;84.12
75231;BME280;63814;50.118;8.714;2022-12-01T00:04:47;100925.34;;;4.87;84.95
75231;BME280;63814;50.118;8.714;2022-12-01T00:07:13;101021.94;;;5.47;84.95
75231;BME280;63814;50.118;8.714;2022-12-01T00:09:40;101026.50;;;5.37;84.96
75231;BME280;63814;50.118;8.714;2022-12-01T00:12:24;101012.69;;;5.35;85.30
75231;BME280;63814;50.118;8.714;2022-12-01T00:14:51;101023.69;;;5.45;84.25
75231;BME280;63814;50.118;8.714;2022-12-01T00:17:27;101028.09;;;5.43;85.07
75231;BME280;63814;50.118;8.714;2022-12-01T00:19:55;101020.38;;;5.40;84.34
75231;BME280;63814;50.118;8.714;2022-12-01T00:22:21;101027.31;;;5.38;84.45
75231;BME280;63814;50.118;8.714;2022-12-01T00:24:48;101024.28;;;5.20;83.40
75231;BME280;63814;50.118;8.714;2022-12-01T00:27:14;101031.94;;;5.26;83.79
75231;BME280;63814;50.118;8.714;2022-12-01T00:29:41;101031.03;;;5.27;84.18
75231;BME280;63814;50.118;8.714;2022-12-01T00:32:07;101039.69;;;5.28;84.61
75231;BME280;63814;50.118;8.714;2022-12-01T00:34:35;101024.19;;;5.23;84.60
75231;BME280;63814;50.118;8.714;2022-12-01T00:37:02;101023.59;;;5.12;83.96
75231;BME280;63814;50.118;8.714;2022-12-01T00:39:28;101033.75;;;5.23;84.19
75231;BME280;63814;50.118;8.714;2022-12-01T00:41:55;101036.53;;;5.13;82.52
75231;BME280;63814;50.118;8.714;2022-12-01T00:44:21;101031.28;;;5.16;84.35
75231;BME280;63814;50.118;8.714;2022-12-01T00:46:48;101038.06;;;5.24;83.61
75231;BME280;63814;50.118;8.714;2022-12-01T00:49:15;101037.94;;;5.28;83.02
75231;BME280;63814;50.118;8.714;2022-12-01T00:51:43;101038.94;;;5.23;84.17
75231;BME280;63814;50.118;8.714;2022-12-01T00:54:09;101038.16;;;5.19;84.52
75231;BME280;63814;50.118;8.714;2022-12-01T00:56:36;101043.47;;;5.14;84.50
75231;BME280;63814;50.118;8.714;2022-12-01T00:59:02;101043.22;;;5.25;83.04
75231;BME280;63814;50.118;8.714;2022-12-01T01:01:29;101041.44;;;5.27;83.22
75231;BME280;63814;50.118;8.714;2022-12-01T01:03:56;101034.66;;;5.20;82.92
75231;BME280;63814;50.118;8.714;2022-12-01T01:06:23;101046.75;;;5.23;82.42
75231;BME280;63814;50.118;8.714;2022-12-01T01:08:50;101042.53;;;5.17;83.68
75231;BME280;63814;50.118;8.714;2022-12-01T01:11:17;101040.03;;;5.12;83.52
75231;BME280;63814;50.118;8.714;2022-12-01T01:13:44;101053.91;;;5.13;84.30
75231;BME280;63814;50.118;8.714;2022-12-01T01:16:13;101027.38;;;4.97;84.09
75231;BME280;63814;50.118;8.714;2022-12-01T01:18:40;101047.88;;;5.11;83.62
75231;BME280;63814;50.118;8.714;2022-12-01T01:21:10;101058.44;;;5.03;84.22
75231;BME280;63814;50.118;8.714;2022-12-01T01:23:37;101050.72;;;4.98;83.56
75231;BME280;63814;50.118;8.714;2022-12-01T01:26:07;101050.75;;;4.97;84.55
75231;BME280;63814;50.118;8.714;2022-12-01T01:28:34;101055.00;;;5.01;83.52
75231;BME280;63814;50.118;8.714;2022-12-01T01:31:04;101063.56;;;5.06;83.62
75231;BME280;63814;50.118;8.714;2022-12-01T01:33:31;101055.06;;;4.98;84.26
75231;BME280;63814;50.118;8.714;2022-12-01T01:35:58;101052.63;;;4.90;84.52
75231;BME280;63814;50.118;8.714;2022-12-01T01:38:25;101058.63;;;4.94;84.96
75231;BME280;63814;50.118;8.714;2022-12-01T01:40:51;101064.53;;;5.00;83.48
75231;BME280;63814;50.118;8.714;2022-12-01T01:43:41;101058.75;;;4.87;83.46
75231;BME280;63814;50.118;8.714;2022-12-01T01:46:10;101056.28;;;4.81;84.30
75231;BME280;63814;50.118;8.714;2022-12-01T01:48:37;101042.59;;;4.71;84.53
75231;BME280;63814;50.118;8.714;2022-12-01T01:51:06;101066.66;;;4.83;83.95
75231;BME280;63814;50.118;8.714;2022-12-01T01:53:33;101068.41;;;4.81;84.18
75231;BME280;63814;50.118;8.714;2022-12-01T01:56:00;101071.84;;;4.83;84.24
75231;BME280;63814;50.118;8.714;2022-12-01T01:58:28;101064.00;;;4.84;84.12
75231;BME280;63814;50.118;8.714;2022-12-01T02:00:56;101060.47;;;4.87;83.21
75231;BME280;63814;50.118;8.714;2022-12-01T02:03:23;101073.31;;;4.96;82.35
75231;BME280;63814;50.118;8.714;2022-12-01T02:05:50;101018.53;;;4.63;82.85
75231;BME280;63814;50.118;8.714;2022-12-01T02:08:17;101064.78;;;4.89;82.73
75231;BME280;63814;50.118;8.714;2022-12-01T02:10:56;101064.66;;;4.94;82.17
75231;BME280;63814;50.118;8.714;2022-12-01T02:13:33;101062.91;;;4.96;82.38
75231;BME280;63814;50.118;8.714;2022-12-01T02:16:09;101059.53;;;4.91;82.12
75231;BME280;63814;50.118;8.714;2022-12-01T02:18:45;101071.78;;;4.86;81.84
75231;BME280;63814;50.118;8.714;2022-12-01T02:21:25;101067.47;;;4.85;81.85
75231;BME280;63814;50.118;8.714;2022-12-01T02:24:31;101063.16;;;4.84;82.72
75231;BME280;63814;50.118;8.714;2022-12-01T02:27:03;101053.75;;;4.78;82.94
75231;BME280;63814;50.118;8.714;2022-12-01T02:29:52;101067.47;;;4.83;83.66
75231;BME280;63814;50.118;8.714;2022-12-01T02:32:30;101063.16;;;4.84;83.32
75231;BME280;63814;50.118;8.714;2022-12-01T02:35:08;101060.59;;;4.81;81.70
75231;BME280;63814;50.118;8.714;2022-12-01T02:37:42;101063.09;;;4.87;82.55
75231;BME280;63814;50.118;8.714;2022-12-01T02:40:14;101050.94;;;4.89;82.54
75231;BME280;63814;50.118;8.714;2022-12-01T02:42:47;101059.59;;;4.88;82.62
75231;BME280;63814;50.118;8.714;2022-12-01T02:45:24;101066.31;;;4.98;81.50
75231;BME280;63814;50.118;8.714;2022-12-01T02:47:59;101057.88;;;4.87;81.57
75231;BME280;63814;50.118;8.714;2022-12-01T02:50:28;101061.44;;;4.83;82.05
75231;BME280;63814;50.118;8.714;2022-12-01T02:52:56;101062.38;;;4.80;81.90
75231;BME280;63814;50.118;8.714;2022-12-01T02:55:22;100966.53;;;4.22;80.71
75231;BME280;63814;50.118;8.714;2022-12-01T02:57:49;101070.13;;;4.82;81.03
75231;BME280;63814;50.118;8.714;2022-12-01T03:00:17;101070.06;;;4.85;81.19
75231;BME280;63814;50.118;8.714;2022-12-01T03:02:54;101069.28;;;4.80;81.97
75231;BME280;63814;50.118;8.714;2022-12-01T03:05:28;101066.66;;;4.81;82.14
75231;BME280;63814;50.118;8.714;2022-12-01T03:08:03;101060.69;;;4.77;81.65
75231;BME280;63814;50.118;8.714;2022-12-01T03:10:47;101054.72;;;4.72;81.75
75231;BME280;63814;50.118;8.714;2022-12-01T03:13:19;101065.72;;;4.85;80.59
75231;BME280;63814;50.118;8.714;2022-12-01T03:15:56;101063.16;;;4.84;81.64
75231;BME280;63814;50.118;8.714;2022-12-01T03:18:32;101063.19;;;4.82;81.33
75231;BME280;63814;50.118;8.714;2022-12-01T03:21:06;101054.66;;;4.75;81.86
75231;BME280;63814;50.118;8.714;2022-12-01T03:23:36;101058.88;;;4.81;81.25
75231;BME280;63814;50.118;8.714;2022-12-01T03:26:06;101049.59;;;4.68;82.12
75231;BME280;63814;50.118;8.714;2022-12-01T03:28:37;101050.50;;;4.67;82.13
75231;BME280;63814;50.118;8.714;2022-12-01T03:31:06;101050.69;;;4.57;80.93
75231;BME280;63814;50.118;8.714;2022-12-01T03:33:35;101040.41;;;4.53;81.95
75231;BME280;63814;50.118;8.714;2022-12-01T03:36:07;101054.91;;;4.63;81.66
75231;BME280;63814;50.118;8.714;2022-12-01T03:38:36;101048.88;;;4.61;81.03
75231;BME280;63814;50.118;8.714;2022-12-01T03:41:09;101055.00;;;4.57;80.92
75231;BME280;63814;50.118;8.714;2022-12-01T03:43:40;101054.22;;;4.53;81.15
75231;BME280;63814;50.118;8.714;2022-12-01T03:46:11;101057.50;;;4.63;80.55
75231;BME280;63814;50.118;8.714;2022-12-01T03:48:40;101055.88;;;4.57;81.19
75231;BME280;63814;50.118;8.714;2022-12-01T03:51:13;101065.47;;;4.54;81.98
75231;BME280;63814;50.118;8.714;2022-12-01T03:53:46;101073.38;;;4.49;82.18
75231;BME280;63814;50.118;8.714;2022-12-01T03:56:18;101063.91;;;4.43;82.34
75231;BME280;63814;50.118;8.714;2022-12-01T03:58:47;101073.28;;;4.52;82.20
75231;BME280;63814;50.118;8.714;2022-12-01T04:01:16;101075.88;;;4.54;81.86
75231;BME280;63814;50.118;8.714;2022-12-01T04:03:44;101068.22;;;4.46;81.99
75231;BME280;63814;50.118;8.714;2022-12-01T04:06:12;101070.69;;;4.52;81.48
75231;BME280;63814;50.118;8.714;2022-12-01T04:08:39;101076.78;;;4.51;81.77
75231;BME280;63814;50.118;8.714;2022-12-01T04:11:06;101060.44;;;4.44;81.68
75231;BME280;63814;50.118;8.714;2022-12-01T04:13:46;101074.16;;;4.53;81.60
75231;BME280;63814;50.118;8.714;2022-12-01T04:16:12;101080.28;;;4.48;82.49
75231;BME280;63814;50.118;8.714;2022-12-01T04:18:39;101081.16;;;4.47;81.95
75231;BME280;63814;50.118;8.714;2022-12-01T04:21:05;101078.66;;;4.43;82.78
75231;BME280;63814;50.118;8.714;2022-12-01T04:23:33;101021.25;;;4.11;82.07
75231;BME280;63814;50.118;8.714;2022-12-01T04:26:17;101076.81;;;4.48;82.74
75231;BME280;63814;50.118;8.714;2022-12-01T04:28:43;101082.88;;;4.48;82.08
75231;BME280;63814;50.118;8.714;2022-12-01T04:31:10;101074.19;;;4.49;82.18
75231;BME280;63814;50.118;8.714;2022-12-01T04:33:36;101075.97;;;4.49;82.22
75231;BME280;63814;50.118;8.714;2022-12-01T04:36:03;101079.41;;;4.49;82.54
75231;BME280;63814;50.118;8.714;2022-12-01T04:38:30;101085.47;;;4.48;81.91
75231;BME280;63814;50.118;8.714;2022-12-01T04:40:58;101078.56;;;4.47;82.42
75231;BME280;63814;50.118;8.714;2022-12-01T04:43:24;101082.00;;;4.49;81.82
75231;BME280;63814;50.118;8.714;2022-12-01T04:45:51;101076.81;;;4.48;82.28
75231;BME280;63814;50.118;8.714;2022-12-01T04:48:17;101081.94;;;4.53;81.78
75231;BME280;63814;50.118;8.714;2022-12-01T04:50:44;101072.41;;;4.52;81.88
75231;BME280;63814;50.118;8.714;2022-12-01T04:53:10;101072.38;;;4.55;81.90
75231;BME280;63814;50.118;8.714;2022-12-01T04:55:37;101065.59;;;4.47;80.78
75231;BME280;63814;50.118;8.714;2022-12-01T04:58:05;101072.47;;;4.50;81.50
75231;BME280;63814;50.118;8.714;2022-12-01T05:00:32;101074.09;;;4.54;81.59
75231;BME280;63814;50.118;8.714;2022-12-01T05:02:59;101071.50;;;4.54;81.09
75231;BME280;63814;50.118;8.714;2022-12-01T05:05:26;101069.75;;;4.56;80.50
75231;BME280;63814;50.118;8.714;2022-12-01T05:07:52;101071.50;;;4.56;81.58
75231;BME280;63814;50.118;8.714;2022-12-01T05:10:19;101076.72;;;4.54;82.30
75231;BME280;63814;50.118;8.714;2022-12-01T05:12:45;101072.41;;;4.52;82.11
75231;BME280;63814;50.118;8.714;2022-12-01T05:15:13;101076.72;;;4.54;81.72
75231;BME280;63814;50.118;8.714;2022-12-01T05:17:40;101024.47;;;4.22;81.08
75231;BME280;63814;50.118;8.714;2022-12-01T05:20:07;101080.09;;;4.58;80.41
75231;BME280;63814;50.118;8.714;2022-12-01T05:22:51;101076.72;;;4.54;81.01
75231;BME280;63814;50.118;8.714;2022-12-01T05:25:22;101077.59;;;4.53;80.60
75231;BME280;63814;50.118;8.714;2022-12-01T05:27:49;101076.81;;;4.48;81.13
75231;BME280;63814;50.118;8.714;2022-12-01T05:30:17;101077.75;;;4.45;81.52
75231;BME280;63814;50.118;8.714;2022-12-01T05:32:43;101078.56;;;4.49;81.18
75231;BME280;63814;50.118;8.714;2022-12-01T05:35:10;101074.22;;;4.48;81.15
75231;BME280;63814;50.118;8.714;2022-12-01T05:37:37;101080.22;;;4.52;81.54
75231;BME280;63814;50.118;8.714;2022-12-01T05:40:04;101082.69;;;4.58;80.69
75231;BME280;63814;50.118;8.714;2022-12-01T05:42:31;101077.63;;;4.52;80.82
75231;BME280;63814;50.118;8.714;2022-12-01T05:44:57;101072.56;;;4.45;81.50
75231;BME280;63814;50.118;8.714;2022-12-01T05:47:25;101084.66;;;4.46;80.47
75231;BME280;63814;50.118;8.714;2022-12-01T05:49:52;101082.09;;;4.45;80.74
75231;BME280;63814;50.118;8.714;2022-12-01T05:52:18;101091.56;;;4.47;80.80
75231;BME280;63814;50.118;8.714;2022-12-01T05:54:45;101092.38;;;4.49;81.39
75231;BME280;63814;50.118;8.714;2022-12-01T05:57:11;101100.16;;;4.51;80.63
75231;BME280;63814;50.118;8.714;2022-12-01T05:59:37;101086.47;;;4.41;80.36
75231;BME280;63814;50.118;8.714;2022-12-01T06:02:04;101101.97;;;4.46;81.14
75231;BME280;63814;50.118;8.714;2022-12-01T06:04:32;101097.66;;;4.45;80.95
75231;BME280;63814;50.118;8.714;2022-12-01T06:06:58;101100.13;;;4.53;80.10
75231;BME280;63814;50.118;8.714;2022-12-01T06:09:25;101099.28;;;4.50;80.26
75231;BME280;63814;50.118;8.714;2022-12-01T06:11:51;101098.44;;;4.50;80.27
75231;BME280;63814;50.118;8.714;2022-12-01T06:14:18;101101.88;;;4.50;80.13
75231;BME280;63814;50.118;8.714;2022-12-01T06:16:44;101102.06;;;4.41;80.51
75231;BME280;63814;50.118;8.714;2022-12-01T06:19:11;101098.56;;;4.42;79.37
75231;BME280;63814;50.118;8.714;2022-12-01T06:21:39;101110.63;;;4.46;80.05
75231;BME280;63814;50.118;8.714;2022-12-01T06:24:06;101103.72;;;4.45;80.54
75231;BME280;63814;50.118;8.714;2022-12-01T06:26:32;101107.25;;;4.41;79.81
75231;BME280;63814;50.118;8.714;2022-12-01T06:28:59;101104.63;;;4.43;79.98
75231;BME280;63814;50.118;8.714;2022-12-01T06:31:25;101113.19;;;4.48;79.25
75231;BME280;63814;50.118;8.714;2022-12-01T06:33:52;101117.63;;;4.41;79.28
75231;BME280;63814;50.118;8.714;2022-12-01T06:36:18;101121.13;;;4.40;79.95
75231;BME280;63814;50.118;8.714;2022-12-01T06:38:46;101124.66;;;4.36;80.34
75231;BME280;63814;50.118;8.714;2022-12-01T06:41:12;101126.44;;;4.31;80.53
75231;BME280;63814;50.118;8.714;2022-12-01T06:43:39;101117.84;;;4.29;80.55
75231;BME280;63814;50.118;8.714;2022-12-01T06:46:05;101129.75;;;4.42;80.26
75231;BME280;63814;50.118;8.714;2022-12-01T06:48:32;101120.47;;;4.27;80.23
75231;BME280;63814;50.118;8.714;2022-12-01T06:50:59;101124.66;;;4.36;80.04
75231;BME280;63814;50.118;8.714;2022-12-01T06:53:25;101133.31;;;4.35;80.09
75231;BME280;63814;50.118;8.714;2022-12-01T06:55:57;101132.53;;;4.30;79.94
75231;BME280;63814;50.118;8.714;2022-12-01T06:58:24;101135.84;;;4.38;78.95
75231;BME280;63814;50.118;8.714;2022-12-01T07:00:50;101133.31;;;4.35;79.83
75231;BME280;63814;50.118;8.714;2022-12-01T07:03:17;101133.22;;;4.41;78.91
75231;BME280;63814;50.118;8.714;2022-12-01T07:05:43;101141.09;;;4.36;77.71
75231;BME280;63814;50.118;8.714;2022-12-01T07:08:10;101138.53;;;4.33;77.46
75231;BME280;63814;50.118;8.714;2022-12-01T07:10:37;101136.91;;;4.28;76.31
75231;BME280;63814;50.118;8.714;2022-12-01T07:13:05;101136.16;;;4.21;76.79
75231;BME280;63814;50.118;8.714;2022-12-01T07:15:31;101142.97;;;4.28;76.78
75231;BME280;63814;50.118;8.714;2022-12-01T07:17:58;101142.97;;;4.28;77.21
75231;BME280;63814;50.118;8.714;2022-12-01T07:20:24;101145.75;;;4.16;76.41
75231;BME280;63814;50.118;8.714;2022-12-01T07:22:52;101104.59;;;3.92;76.42
75231;BME280;63814;50.118;8.714;2022-12-01T07:25:19;101149.09;;;4.22;75.33
75231;BME280;63814;50.118;8.714;2022-12-01T07:27:45;101154.28;;;4.22;75.76
75231;BME280;63814;50.118;8.714;2022-12-01T07:30:13;101158.66;;;4.20;75.34
75231;BME280;63814;50.118;8.714;2022-12-01T07:32:40;101157.88;;;4.15;75.96
75231;BME280;63814;50.118;8.714;2022-12-01T07:35:07;101165.53;;;4.23;74.48
75231;BME280;63814;50.118;8.714;2022-12-01T07:37:34;101162.09;;;4.22;76.17
75231;BME280;63814;50.118;8.714;2022-12-01T07:40:00;101156.16;;;4.14;74.89
75231;BME280;63814;50.118;8.714;2022-12-01T07:42:27;101161.25;;;4.20;75.32
75231;BME280;63814;50.118;8.714;2022-12-01T07:44:53;101164.91;;;4.10;74.62
75231;BME280;63814;50.118;8.714;2022-12-01T07:47:21;101171.78;;;4.11;74.57
75231;BME280;63814;50.118;8.714;2022-12-01T07:49:48;101168.38;;;4.07;73.12
75231;BME280;63814;50.118;8.714;2022-12-01T07:52:14;101170.19;;;4.04;74.20
75231;BME280;63814;50.118;8.714;2022-12-01T07:54:41;101173.59;;;4.06;74.43
75231;BME280;63814;50.118;8.714;2022-12-01T07:57:07;101135.72;;;3.94;74.53
75231;BME280;63814;50.118;8.714;2022-12-01T07:59:34;101179.19;;;4.34;73.57
75231;BME280;63814;50.118;8.714;2022-12-01T08:02:00;101174.13;;;4.28;73.01
75231;BME280;63814;50.118;8.714;2022-12-01T08:04:28;101177.66;;;4.22;75.63
75231;BME280;63814;50.118;8.714;2022-12-01T08:06:55;101180.19;;;4.27;74.45
75231;BME280;63814;50.118;8.714;2022-12-01T08:09:21;101180.25;;;4.24;74.45
75231;BME280;63814;50.118;8.714;2022-12-01T08:11:48;101180.41;;;4.13;73.28
75231;BME280;63814;50.118;8.714;2022-12-01T08:14:14;101189.09;;;4.09;73.96
75231;BME280;63814;50.118;8.714;2022-12-01T08:16:41;101146.16;;;3.89;73.47
75231;BME280;63814;50.118;8.714;2022-12-01T08:19:08;101184.16;;;3.93;74.11
75231;BME280;63814;50.118;8.714;2022-12-01T08:21:37;101161.59;;;3.97;73.65
75231;BME280;63814;50.118;8.714;2022-12-01T08:24:04;101183.09;;;4.05;74.13
75231;BME280;63814;50.118;8.714;2022-12-01T08:26:30;101185.69;;;4.05;74.66
75231;BME280;63814;50.118;8.714;2022-12-01T08:28:57;101187.41;;;4.08;74.41
75231;BME280;63814;50.118;8.714;2022-12-01T08:31:25;101190.72;;;4.16;73.83
75231;BME280;63814;50.118;8.714;2022-12-01T08:33:53;101180.34;;;4.18;73.35
75231;BME280;63814;50.118;8.714;2022-12-01T08:36:21;101197.66;;;4.17;73.15
75231;BME280;63814;50.118;8.714;2022-12-01T08:38:50;101199.31;;;4.21;73.42
75231;BME280;63814;50.118;8.714;2022-12-01T08:41:18;101183.72;;;4.21;73.49
75231;BME280;63814;50.118;8.714;2022-12-01T08:43:45;101187.94;;;4.29;73.15
75231;BME280;63814;50.118;8.714;2022-12-01T08:46:12;101192.94;;;4.41;72.67
75231;BME280;63814;50.118;8.714;2022-12-01T08:48:39;101188.66;;;4.40;73.44
75231;BME280;63814;50.118;8.714;2022-12-01T08:51:07;101185.16;;;4.43;72.33
75231;BME280;63814;50.118;8.714;2022-12-01T08:53:36;101198.94;;;4.46;72.45
75231;BME280;63814;50.118;8.714;2022-12-01T08:56:08;101192.84;;;4.47;72.78
75231;BME280;63814;50.118;8.714;2022-12-01T08:58:35;101196.28;;;4.49;73.01
75231;BME280;63814;50.118;8.714;2022-12-01T09:01:03;101192.03;;;4.45;72.34
75231;BME280;63814;50.118;8.714;2022-12-01T09:03:32;101197.94;;;4.54;73.45
75231;BME280;63814;50.118;8.714;2022-12-01T09:06:02;101196.09;;;4.59;72.70
75231;BME280;63814;50.118;8.714;2022-12-01T09:08:29;101201.28;;;4.60;72.09
75231;BME280;63814;50.118;8.714;2022-12-01T09:10:56;101195.97;;;4.68;72.75
75231;BME280;63814;50.118;8.714;2022-12-01T09:13:24;101192.41;;;4.72;72.60
75231;BME280;63814;50.118;8.714;2022-12-01T09:15:56;101193.94;;;4.84;72.18
75231;BME280;63814;50.118;8.714;2022-12-01T09:18:23;101195.72;;;4.81;71.98
75231;BME280;63814;50.118;8.714;2022-12-01T09:20:50;101187.72;;;4.93;71.02
75231;BME280;63814;50.118;8.714;2022-12-01T09:23:16;101193.81;;;4.90;73.38
75231;BME280;63814;50.118;8.714;2022-12-01T09:25:43;101191.81;;;5.05;72.37
75231;BME280;63814;50.118;8.714;2022-12-01T09:28:09;101188.41;;;5.03;70.87
75231;BME280;63814;50.118;8.714;2022-12-01T09:30:37;101186.72;;;5.00;71.50
75231;BME280;63814;50.118;8.714;2022-12-01T09:33:03;101197.91;;;5.05;71.40
75231;BME280;63814;50.118;8.714;2022-12-01T09:35:31;101192.19;;;5.30;71.58
75231;BME280;63814;50.118;8.714;2022-12-01T09:37:57;101192.28;;;5.27;70.07
75231;BME280;63814;50.118;8.714;2022-12-01T09:40:29;101178.91;;;5.00;70.66
75231;BME280;63814;50.118;8.714;2022-12-01T09:42:56;101184.88;;;5.07;71.09
75231;BME280;63814;50.118;8.714;2022-12-01T09:45:25;101184.63;;;5.19;70.81
75231;BME280;63814;50.118;8.714;2022-12-01T09:47:55;101176.78;;;5.21;69.44
75231;BME280;63814;50.118;8.714;2022-12-01T09:50:24;101166.53;;;5.13;71.39
75231;BME280;63814;50.118;8.714;2022-12-01T09:52:53;101117.28;;;4.61;71.57
75231;BME280;63814;50.118;8.714;2022-12-01T09:55:23;101167.50;;;5.09;74.16
75231;BME280;63814;50.118;8.714;2022-12-01T09:57:52;101163.94;;;5.13;71.78
75231;BME280;63814;50.118;8.714;2022-12-01T10:00:21;101145.09;;;5.02;70.96
75231;BME280;63814;50.118;8.714;2022-12-01T10:02:50;101158.72;;;5.13;70.21
75231;BME280;63814;50.118;8.714;2022-12-01T10:05:21;101163.13;;;5.10;70.16
75231;BME280;63814;50.118;8.714;2022-12-01T10:07:51;101160.69;;;5.02;70.05
75231;BME280;63814;50.118;8.714;2022-12-01T10:10:25;101154.53;;;5.08;70.57
75231;BME280;63814;50.118;8.714;2022-12-01T10:12:52;101149.28;;;5.11;71.69
75231;BME280;63814;50.118;8.714;2022-12-01T10:15:28;101146.34;;;5.26;71.78
75231;BME280;63814;50.118;8.714;2022-12-01T10:18:06;101141.88;;;5.33;70.02
75231;BME280;63814;50.118;8.714;2022-12-01T10:20:43;101145.09;;;5.46;70.62
75231;BME280;63814;50.118;8.714;2022-12-01T10:23:32;101133.47;;;5.61;69.41
75231;BME280;63814;50.118;8.714;2022-12-01T10:26:09;101124.88;;;5.97;69.35
75231;BME280;63814;50.118;8.714;2022-12-01T10:29:04;101123.47;;;6.53;66.68
75231;BME280;63814;50.118;8.714;2022-12-01T10:31:38;101125.56;;;7.05;64.66
75231;BME280;63814;50.118;8.714;2022-12-01T10:34:20;101121.56;;;7.53;62.21
75231;BME280;63814;50.118;8.714;2022-12-01T10:36:47;101110.44;;;7.46;61.82
75231;BME280;63814;50.118;8.714;2022-12-01T10:39:17;101117.78;;;7.33;63.10
75231;BME280;63814;50.118;8.714;2022-12-01T10:41:46;101117.47;;;7.14;62.14
75231;BME280;63814;50.118;8.714;2022-12-01T10:44:14;101115.34;;;6.97;63.67
75231;BME280;63814;50.118;8.714;2022-12-01T10:46:44;101112.31;;;6.81;63.57
75231;BME280;63814;50.118;8.714;2022-12-01T10:49:13;101119.75;;;6.63;63.64
75231;BME280;63814;50.118;8.714;2022-12-01T10:51:51;101118.47;;;6.47;65.15
75231;BME280;63814;50.118;8.714;2022-12-01T10:54:20;101093.50;;;6.38;65.20
75231;BME280;63814;50.118;8.714;2022-12-01T10:56:48;101099.47;;;6.41;64.69
75231;BME280;63814;50.118;8.714;2022-12-01T10:59:23;101117.91;;;6.34;65.71
75231;BME280;63814;50.118;8.714;2022-12-01T11:01:51;101112.63;;;6.37;64.62
75231;BME280;63814;50.118;8.714;2022-12-01T11:04:28;101108.50;;;6.28;65.29
75231;BME280;63814;50.118;8.714;2022-12-01T11:06:57;101104.16;;;6.29;64.71
75231;BME280;63814;50.118;8.714;2022-12-01T11:09:27;101102.91;;;6.09;65.83
75231;BME280;63814;50.118;8.714;2022-12-01T11:11:55;101107.63;;;5.91;66.54
75231;BME280;63814;50.118;8.714;2022-12-01T11:14:29;101098.75;;;6.00;66.60
75231;BME280;63814;50.118;8.714;2022-12-01T11:17:13;101063.19;;;5.63;67.17
75231;BME280;63814;50.118;8.714;2022-12-01T11:19:40;101104.81;;;6.00;66.97
75231;BME280;63814;50.118;8.714;2022-12-01T11:22:19;101106.53;;;6.02;67.38
75231;BME280;63814;50.118;8.714;2022-12-01T11:24:56;101103.88;;;6.03;67.31
75231;BME280;63814;50.118;8.714;2022-12-01T11:27:24;101104.53;;;6.13;66.55
75231;BME280;63814;50.118;8.714;2022-12-01T11:29:54;101096.81;;;6.10;66.26
75231;BME280;63814;50.118;8.714;2022-12-01T11:32:23;101101.88;;;6.14;65.24
75231;BME280;63814;50.118;8.714;2022-12-01T11:34:54;101091.66;;;6.07;66.30
75231;BME280;63814;50.118;8.714;2022-12-01T11:37:26;101089.81;;;6.10;66.13
75231;BME280;63814;50.118;8.714;2022-12-01T11:40:04;101084.56;;;6.13;66.17
75231;BME280;63814;50.118;8.714;2022-12-01T11:42:32;101094.09;;;6.13;64.99
75231;BME280;63814;50.118;8.714;2022-12-01T11:45:21;101087.44;;;6.03;65.12
75231;BME280;63814;50.118;8.714;2022-12-01T11:48:03;101084.81;;;6.01;65.02
75231;BME280;63814;50.118;8.714;2022-12-01T11:50:31;101077.84;;;6.03;65.96
75231;BME280;63814;50.118;8.714;2022-12-01T11:53:00;101080.47;;;6.03;65.57
75231;BME280;63814;50.118;8.714;2022-12-01T11:55:28;101065.06;;;5.92;65.60
75231;BME280;63814;50.118;8.714;2022-12-01T11:57:58;101078.78;;;6.00;66.07
75231;BME280;63814;50.118;8.714;2022-12-01T12:00:27;101063.34;;;5.93;66.00
75231;BME280;63814;50.118;8.714;2022-12-01T12:06:06;101073.97;;;6.21;65.06
75231;BME280;63814;50.118;8.714;2022-12-01T12:08:59;101070.53;;;6.18;65.00
75231;BME280;63814;50.118;8.714;2022-12-01T12:11:34;101072.94;;;6.27;64.78
75231;BME280;63814;50.118;8.714;2022-12-01T12:14:24;101071.75;;;6.39;62.58
75231;BME280;63814;50.118;8.714;2022-12-01T12:17:07;101075.25;;;6.38;63.78
75231;BME280;63814;50.118;8.714;2022-12-01T12:19:56;101069.31;;;6.33;63.61
75231;BME280;63814;50.118;8.714;2022-12-01T12:22:31;101065.44;;;6.48;64.43
75231;BME280;63814;50.118;8.714;2022-12-01T12:25:15;101065.06;;;6.62;64.01
75231;BME280;63814;50.118;8.714;2022-12-01T12:27:52;101060.88;;;6.88;62.68
75231;BME280;63814;50.118;8.714;2022-12-01T12:30:23;101058.28;;;7.16;61.96
75231;BME280;63814;50.118;8.714;2022-12-01T12:33:18;101037.09;;;7.56;60.06
75231;BME280;63814;50.118;8.714;2022-12-01T12:35:53;101041.81;;;8.97;56.10
75231;BME280;63814;50.118;8.714;2022-12-01T12:38:38;101024.44;;;11.24;50.81
75231;BME280;63814;50.118;8.714;2022-12-01T12:41:19;101015.72;;;12.47;46.30
75231;BME280;63814;50.118;8.714;2022-12-01T12:44:01;101018.66;;;13.07;44.38
75231;BME280;63814;50.118;8.714;2022-12-01T12:46:34;101021.75;;;12.16;46.84
75231;BME280;63814;50.118;8.714;2022-12-01T12:49:16;101029.00;;;11.01;48.85
75231;BME280;63814;50.118;8.714;2022-12-01T12:51:50;100975.63;;;9.82;51.65
75231;BME280;63814;50.118;8.714;2022-12-01T12:54:25;100977.66;;;9.96;51.33
75231;BME280;63814;50.118;8.714;2022-12-01T12:57:01;101030.00;;;10.80;50.41
75231;BME280;63814;50.118;8.714;2022-12-01T12:59:32;101018.50;;;11.38;49.24
75231;BME280;63814;50.118;8.714;2022-12-01T13:02:03;101035.16;;;11.56;48.23
75231;BME280;63814;50.118;8.714;2022-12-01T13:04:40;101027.22;;;11.93;47.47
75231;BME280;63814;50.118;8.714;2022-12-01T13:07:18;101025.69;;;11.89;48.08
75231;BME280;63814;50.118;8.714;2022-12-01T13:09:49;101027.13;;;12.30;46.71
75231;BME280;63814;50.118;8.714;2022-12-01T13:12:24;101024.13;;;12.20;46.84
75231;BME280;63814;50.118;8.714;2022-12-01T13:14:54;101017.75;;;12.42;46.01
75231;BME280;63814;50.118;8.714;2022-12-01T13:17:27;101028.84;;;12.13;46.72
75231;BME280;63814;50.118;8.714;2022-12-01T13:19:56;101020.63;;;11.67;47.93